createdAt,value
2022-09-16T00:01:28.325Z,15.40
2022-09-16T00:03:58.104Z,15.40
2022-09-16T00:06:29.454Z,15.30
2022-09-16T00:09:02.096Z,15.30
2022-09-16T00:11:34.815Z,15.20
2022-09-16T00:14:03.949Z,15.20
2022-09-16T00:16:32.711Z,15.30
2022-09-16T00:19:03.713Z,15.20
2022-09-16T00:21:32.854Z,15.20
2022-09-16T00:24:03.102Z,15.20
2022-09-16T00:26:31.194Z,15.20
2022-09-16T00:28:59.241Z,15.20
2022-09-16T00:31:28.172Z,15.20
2022-09-16T00:33:56.303Z,15.20
2022-09-16T00:36:24.735Z,15.10
2022-09-16T00:38:54.909Z,15.10
2022-09-16T00:41:28.862Z,15.10
2022-09-16T00:43:59.564Z,15.10
2022-09-16T00:46:35.757Z,15.10
2022-09-16T00:49:14.469Z,15.10
2022-09-16T00:51:47.996Z,15.10
2022-09-16T00:54:20.255Z,15.00
2022-09-16T00:56:56.889Z,15.00
2022-09-16T00:59:29.809Z,14.90
2022-09-16T01:02:05.170Z,14.90
2022-09-16T01:04:42.163Z,14.90
2022-09-16T01:07:10.469Z,14.90
2022-09-16T01:09:40.877Z,14.90
2022-09-16T01:12:10.642Z,14.90
2022-09-16T01:14:54.317Z,15.00
2022-09-16T01:17:43.759Z,14.90
2022-09-16T01:20:38.869Z,15.00
2022-09-16T01:23:38.705Z,15.00
2022-09-16T01:26:39.772Z,15.00
2022-09-16T01:29:37.571Z,15.00
2022-09-16T01:32:16.204Z,15.10
2022-09-16T01:34:58.622Z,15.10
2022-09-16T01:37:48.403Z,15.10
2022-09-16T01:40:29.301Z,15.10
2022-09-16T01:43:07.378Z,15.10
2022-09-16T01:45:42.643Z,15.00
2022-09-16T01:48:23.314Z,15.10
2022-09-16T01:51:02.856Z,15.10
2022-09-16T01:53:38.702Z,14.90
2022-09-16T01:56:14.184Z,15.10
2022-09-16T01:58:50.623Z,15.00
2022-09-16T02:01:28.269Z,15.00
2022-09-16T02:04:07.415Z,15.10
2022-09-16T02:06:39.934Z,15.10
2022-09-16T02:09:16.214Z,15.00
2022-09-16T02:11:48.610Z,15.10
2022-09-16T02:14:22.057Z,15.20
2022-09-16T02:16:57.574Z,15.20
2022-09-16T02:19:35.649Z,15.10
2022-09-16T02:22:09.917Z,15.10
2022-09-16T02:24:44.323Z,15.10
2022-09-16T02:27:18.037Z,15.20
2022-09-16T02:29:56.048Z,15.10
2022-09-16T02:32:29.905Z,15.10
2022-09-16T02:35:02.980Z,15.10
2022-09-16T02:37:40.955Z,15.20
2022-09-16T02:40:21.441Z,15.10
2022-09-16T02:42:50.387Z,15.20
2022-09-16T02:45:18.789Z,15.10
2022-09-16T02:48:01.080Z,15.10
2022-09-16T02:50:42.060Z,15.10
2022-09-16T02:53:22.089Z,15.10
2022-09-16T02:55:58.621Z,15.00
2022-09-16T02:58:27.160Z,15.10
2022-09-16T03:00:58.777Z,15.10
2022-09-16T03:03:27.416Z,15.10
2022-09-16T03:06:18.612Z,15.10
2022-09-16T03:08:49.260Z,15.10
2022-09-16T03:11:41.596Z,15.10
2022-09-16T03:14:33.934Z,15.00
2022-09-16T03:17:22.206Z,15.00
2022-09-16T03:20:11.293Z,15.00
2022-09-16T03:22:54.103Z,15.00
2022-09-16T03:25:40.628Z,14.90
2022-09-16T03:28:17.103Z,14.90
2022-09-16T03:30:56.087Z,14.90
2022-09-16T03:33:33.576Z,15.00
2022-09-16T03:36:09.017Z,15.00
2022-09-16T03:38:42.076Z,15.00
2022-09-16T03:41:12.431Z,15.00
2022-09-16T03:43:40.961Z,15.00
2022-09-16T03:46:13.427Z,15.00
2022-09-16T03:48:41.533Z,14.90
2022-09-16T03:51:09.984Z,15.00
2022-09-16T03:53:39.470Z,15.10
2022-09-16T03:56:08.761Z,15.00
2022-09-16T03:58:37.081Z,15.00
2022-09-16T04:01:05.654Z,15.00
2022-09-16T04:03:34.360Z,15.00
2022-09-16T04:06:02.529Z,14.90
2022-09-16T04:08:31.769Z,14.90
2022-09-16T04:11:06.227Z,14.90
2022-09-16T04:13:36.758Z,14.90
2022-09-16T04:16:06.547Z,15.00
2022-09-16T04:18:36.080Z,14.90
2022-09-16T04:21:06.212Z,14.90
2022-09-16T04:23:35.421Z,14.90
2022-09-16T04:26:05.995Z,14.80
2022-09-16T04:28:35.580Z,14.80
2022-09-16T04:31:05.324Z,14.70
2022-09-16T04:33:37.453Z,14.70
2022-09-16T04:36:08.798Z,14.70
2022-09-16T04:38:37.909Z,14.70
2022-09-16T04:41:11.075Z,14.80
2022-09-16T04:43:40.579Z,14.70
2022-09-16T04:46:10.156Z,14.70
2022-09-16T04:48:38.870Z,14.70
2022-09-16T04:51:09.705Z,14.70
2022-09-16T04:53:40.081Z,14.60
2022-09-16T04:56:15.515Z,14.60
2022-09-16T04:58:44.930Z,14.60
2022-09-16T05:01:16.007Z,14.60
2022-09-16T05:03:46.352Z,14.60
2022-09-16T05:06:20.892Z,14.70
2022-09-16T05:08:49.653Z,14.60
2022-09-16T05:11:21.859Z,14.60
2022-09-16T05:13:50.425Z,14.60
2022-09-16T05:16:22.472Z,14.60
2022-09-16T05:18:56.598Z,14.60
2022-09-16T05:21:28.113Z,14.60
2022-09-16T05:24:01.384Z,14.70
2022-09-16T05:26:35.259Z,14.60
2022-09-16T05:29:07.303Z,14.60
2022-09-16T05:31:39.903Z,14.60
2022-09-16T05:34:14.324Z,14.60
2022-09-16T05:36:44.516Z,14.60
2022-09-16T05:39:28.482Z,14.60
2022-09-16T05:42:01.631Z,14.60
2022-09-16T05:44:30.687Z,14.70
2022-09-16T05:46:59.041Z,14.60
2022-09-16T05:49:27.512Z,14.70
2022-09-16T05:51:56.180Z,14.60
2022-09-16T05:54:25.358Z,14.60
2022-09-16T05:56:53.737Z,14.50
2022-09-16T05:59:24.464Z,14.50
2022-09-16T06:01:52.590Z,14.50
2022-09-16T06:04:20.763Z,14.50
2022-09-16T06:06:49.327Z,14.60
2022-09-16T06:09:20.713Z,14.50
2022-09-16T06:11:52.097Z,14.50
2022-09-16T06:14:23.511Z,14.50
2022-09-16T06:16:51.729Z,14.50
2022-09-16T06:19:20.456Z,14.50
2022-09-16T06:21:48.948Z,14.50
2022-09-16T06:24:21.057Z,14.50
2022-09-16T06:26:50.425Z,14.50
2022-09-16T06:29:19.416Z,14.40
2022-09-16T06:31:48.989Z,14.50
2022-09-16T06:34:19.459Z,14.40
2022-09-16T06:36:48.776Z,14.50
2022-09-16T06:39:18.442Z,14.40
2022-09-16T06:41:46.986Z,14.50
2022-09-16T06:44:15.704Z,14.40
2022-09-16T06:46:44.175Z,14.40
2022-09-16T06:49:13.978Z,14.30
2022-09-16T06:51:42.517Z,14.30
2022-09-16T06:54:12.970Z,14.10
2022-09-16T06:56:41.906Z,14.00
2022-09-16T06:59:14.268Z,13.90
2022-09-16T07:01:43.094Z,14.00
2022-09-16T07:04:14.167Z,13.90
2022-09-16T07:07:09.055Z,14.00
2022-09-16T07:09:33.144Z,14.10
2022-09-16T07:12:02.184Z,14.10
2022-09-16T07:14:33.084Z,14.10
2022-09-16T07:17:02.185Z,14.20
2022-09-16T07:19:31.646Z,14.30
2022-09-16T07:21:59.864Z,14.30
2022-09-16T07:24:28.033Z,14.30
2022-09-16T07:26:56.760Z,14.20
2022-09-16T07:29:25.397Z,14.20
2022-09-16T07:31:53.669Z,14.20
2022-09-16T07:34:22.551Z,14.20
2022-09-16T07:36:53.083Z,14.10
2022-09-16T07:39:22.034Z,14.20
2022-09-16T07:41:50.186Z,14.20
2022-09-16T07:44:25.505Z,14.20
2022-09-16T07:46:55.220Z,14.30
2022-09-16T07:49:23.848Z,14.30
2022-09-16T07:51:53.413Z,14.50
2022-09-16T07:54:22.013Z,14.60
2022-09-16T07:56:50.596Z,14.80
2022-09-16T07:59:20.852Z,14.90
2022-09-16T08:01:50.231Z,14.90
2022-09-16T08:04:19.612Z,15.10
2022-09-16T08:06:48.535Z,15.10
2022-09-16T08:12:11.500Z,15.20
2022-09-16T08:14:39.684Z,15.20
2022-09-16T08:17:07.984Z,15.10
2022-09-16T08:19:38.756Z,15.20
2022-09-16T08:22:06.969Z,15.10
2022-09-16T08:24:36.960Z,15.10
2022-09-16T08:27:05.410Z,14.90
2022-09-16T08:29:33.761Z,14.80
2022-09-16T08:32:02.853Z,14.90
2022-09-16T08:34:30.957Z,15.00
2022-09-16T08:36:59.256Z,15.00
2022-09-16T08:39:27.414Z,15.00
2022-09-16T08:42:31.903Z,15.20
2022-09-16T08:45:21.504Z,15.20
2022-09-16T08:48:12.381Z,15.20
2022-09-16T08:50:46.991Z,15.00
2022-09-16T08:53:23.711Z,15.00
2022-09-16T08:55:53.598Z,15.00
2022-09-16T08:58:28.693Z,15.10
2022-09-16T09:01:03.664Z,15.20
2022-09-16T09:03:39.229Z,15.30
2022-09-16T09:06:24.983Z,15.20
2022-09-16T09:09:08.238Z,15.40
2022-09-16T09:11:44.624Z,15.50
2022-09-16T09:14:34.642Z,15.60
2022-09-16T09:17:21.945Z,15.60
2022-09-16T09:20:08.554Z,15.60
2022-09-16T09:23:01.782Z,15.50
2022-09-16T09:25:42.888Z,15.60
2022-09-16T09:28:47.921Z,15.60
2022-09-16T09:31:31.708Z,15.40
2022-09-16T09:34:18.094Z,15.20
2022-09-16T09:37:00.483Z,15.10
2022-09-16T09:39:48.750Z,15.10
2022-09-16T09:42:25.655Z,14.90
2022-09-16T09:45:03.983Z,14.80
2022-09-16T09:47:43.718Z,14.80
2022-09-16T09:50:21.007Z,14.80
2022-09-16T09:52:59.125Z,14.70
2022-09-16T09:55:33.894Z,14.70
2022-09-16T09:58:25.261Z,14.70
2022-09-16T10:00:56.197Z,14.70
2022-09-16T10:03:27.980Z,14.60
2022-09-16T10:05:56.590Z,14.50
2022-09-16T10:08:30.615Z,14.50
2022-09-16T10:11:02.337Z,14.50
2022-09-16T10:13:32.408Z,14.50
2022-09-16T10:16:21.641Z,14.50
2022-09-16T10:19:02.164Z,14.50
2022-09-16T10:21:47.207Z,14.50
2022-09-16T10:24:35.467Z,14.50
2022-09-16T10:27:21.033Z,14.40
2022-09-16T10:29:49.993Z,14.40
2022-09-16T10:32:20.611Z,14.30
2022-09-16T10:34:50.639Z,14.20
2022-09-16T10:37:21.211Z,14.30
2022-09-16T10:39:55.721Z,14.30
2022-09-16T10:42:26.786Z,14.20
2022-09-16T10:45:04.378Z,14.30
2022-09-16T10:47:36.311Z,14.50
2022-09-16T10:50:08.585Z,14.40
2022-09-16T10:52:45.240Z,14.50
2022-09-16T10:55:26.704Z,14.40
2022-09-16T10:58:06.946Z,14.50
2022-09-16T11:00:49.906Z,14.50
2022-09-16T11:04:18.897Z,14.60
2022-09-16T11:07:08.155Z,14.60
2022-09-16T11:09:55.650Z,14.60
2022-09-16T11:13:00.875Z,14.70
2022-09-16T11:15:51.156Z,15.10
2022-09-16T11:18:39.211Z,15.40
2022-09-16T11:21:34.127Z,15.80
2022-09-16T11:24:22.101Z,15.90
2022-09-16T11:27:03.181Z,16.10
2022-09-16T11:29:53.900Z,17.10
2022-09-16T11:32:39.067Z,18.40
2022-09-16T11:35:32.274Z,19.00
2022-09-16T11:38:14.859Z,20.30
2022-09-16T11:40:53.168Z,20.60
2022-09-16T11:44:06.896Z,20.30
2022-09-16T11:46:45.365Z,20.70
2022-09-16T11:49:34.766Z,21.60
2022-09-16T11:52:28.812Z,22.10
2022-09-16T11:55:21.489Z,23.10
2022-09-16T11:57:59.585Z,23.90
2022-09-16T12:00:30.575Z,23.50
2022-09-16T12:03:05.229Z,23.10
2022-09-16T12:05:42.963Z,22.70
2022-09-16T12:08:22.884Z,22.80
2022-09-16T12:10:56.804Z,23.40
2022-09-16T12:13:32.447Z,23.90
2022-09-16T12:16:09.728Z,23.50
2022-09-16T12:18:44.426Z,23.90
2022-09-16T12:21:23.411Z,23.90
2022-09-16T12:23:58.775Z,23.60
2022-09-16T12:26:35.021Z,22.80
2022-09-16T12:29:17.197Z,22.50
2022-09-16T12:31:53.243Z,22.70
2022-09-16T12:34:24.844Z,23.50
2022-09-16T12:37:02.189Z,24.00
2022-09-16T12:39:30.464Z,23.80
2022-09-16T12:42:37.645Z,22.40
2022-09-16T12:45:40.207Z,22.40
2022-09-16T12:48:36.210Z,23.60
2022-09-16T12:51:32.334Z,24.70
2022-09-16T12:54:51.185Z,25.00
2022-09-16T12:57:45.789Z,25.90
2022-09-16T13:00:23.083Z,26.00
2022-09-16T13:02:56.217Z,24.80
2022-09-16T13:05:33.150Z,24.30
2022-09-16T13:08:07.283Z,24.30
2022-09-16T13:10:55.770Z,25.00
2022-09-16T13:13:36.324Z,25.00
2022-09-16T13:17:20.460Z,25.00
2022-09-16T13:19:54.257Z,25.50
2022-09-16T13:22:30.146Z,25.70
2022-09-16T13:25:10.300Z,25.50
2022-09-16T13:27:41.032Z,25.60
2022-09-16T13:30:36.813Z,25.90
2022-09-16T13:33:28.158Z,25.90
2022-09-16T13:36:32.297Z,25.50
2022-09-16T13:39:02.679Z,25.50
2022-09-16T13:41:37.107Z,26.10
2022-09-16T13:44:40.146Z,26.50
2022-09-16T13:47:18.159Z,25.50
2022-09-16T13:49:53.339Z,24.70
2022-09-16T13:52:29.002Z,23.80
2022-09-16T13:55:11.351Z,23.10
2022-09-16T13:58:01.885Z,22.40
2022-09-16T14:00:41.692Z,21.70
2022-09-16T14:03:43.290Z,21.10
2022-09-16T14:06:45.513Z,20.70
2022-09-16T14:09:30.041Z,20.40
2022-09-16T14:12:11.238Z,20.30
2022-09-16T14:14:47.727Z,20.50
2022-09-16T14:17:23.914Z,21.30
2022-09-16T14:19:59.153Z,21.60
2022-09-16T14:22:28.672Z,21.60
2022-09-16T14:25:06.284Z,21.60
2022-09-16T14:27:39.350Z,21.10
2022-09-16T14:30:16.868Z,20.40
2022-09-16T14:32:48.828Z,20.00
2022-09-16T14:35:21.433Z,19.80
2022-09-16T14:37:56.348Z,19.50
2022-09-16T14:40:28.193Z,19.40
2022-09-16T14:43:03.197Z,19.20
2022-09-16T14:45:33.796Z,19.30
2022-09-16T14:48:09.457Z,19.40
2022-09-16T14:50:42.751Z,19.30
2022-09-16T14:53:35.729Z,19.10
2022-09-16T14:56:06.486Z,19.10
2022-09-16T14:58:37.586Z,18.90
2022-09-16T15:01:13.226Z,18.70
2022-09-16T15:03:49.956Z,18.70
2022-09-16T15:06:22.363Z,18.70
2022-09-16T15:08:56.377Z,18.80
2022-09-16T15:12:46.682Z,18.80
2022-09-16T15:14:19.860Z,18.80
2022-09-16T15:16:53.247Z,18.80
2022-09-16T15:19:29.672Z,18.60
2022-09-16T15:21:58.838Z,18.50
2022-09-16T15:24:32.852Z,18.30
2022-09-16T15:27:02.408Z,18.40
2022-09-16T15:29:35.059Z,18.30
2022-09-16T15:32:18.421Z,18.20
2022-09-16T15:34:49.842Z,18.10
2022-09-16T15:37:35.583Z,18.00
2022-09-16T15:40:20.871Z,18.00
2022-09-16T15:43:02.005Z,17.90
2022-09-16T15:45:30.614Z,17.70
2022-09-16T15:48:03.204Z,17.50
2022-09-16T15:50:44.228Z,17.30
2022-09-16T15:53:18.425Z,17.10
2022-09-16T15:55:59.198Z,17.00
2022-09-16T15:58:41.201Z,17.00
2022-09-16T16:01:16.605Z,17.10
2022-09-16T16:03:55.452Z,16.90
2022-09-16T16:06:49.343Z,17.00
2022-09-16T16:09:41.715Z,16.80
2022-09-16T16:12:14.207Z,16.80
2022-09-16T16:14:43.650Z,16.80
2022-09-16T16:17:16.637Z,16.70
2022-09-16T16:19:47.104Z,16.70
2022-09-16T16:22:17.726Z,16.60
2022-09-16T16:24:46.351Z,16.70
2022-09-16T16:27:14.825Z,16.60
2022-09-16T16:29:42.828Z,16.60
2022-09-16T16:32:14.225Z,16.60
2022-09-16T16:34:45.285Z,16.50
2022-09-16T16:37:40.192Z,16.30
2022-09-16T16:40:07.198Z,16.40
2022-09-16T16:42:35.892Z,16.20
2022-09-16T16:45:05.150Z,16.00
2022-09-16T16:47:33.261Z,15.90
2022-09-16T16:50:01.932Z,15.80
2022-09-16T16:52:31.253Z,15.80
2022-09-16T16:54:59.957Z,15.60
2022-09-16T16:57:28.317Z,15.50
2022-09-16T16:59:56.576Z,15.40
2022-09-16T17:02:26.063Z,15.40
2022-09-16T17:04:54.657Z,15.40
2022-09-16T17:07:27.650Z,15.30
2022-09-16T17:09:59.007Z,15.30
2022-09-16T17:12:27.859Z,15.30
2022-09-16T17:14:56.274Z,15.10
2022-09-16T17:17:27.761Z,15.10
2022-09-16T17:19:58.962Z,15.00
2022-09-16T17:22:27.138Z,15.00
2022-09-16T17:24:55.232Z,14.90
2022-09-16T17:27:26.917Z,14.80
2022-09-16T17:29:55.999Z,14.80
2022-09-16T17:32:24.019Z,14.70
2022-09-16T17:34:52.261Z,14.80
2022-09-16T17:37:21.108Z,14.70
2022-09-16T17:39:49.838Z,14.70
2022-09-16T17:42:17.970Z,14.60
2022-09-16T17:44:47.535Z,14.60
2022-09-16T17:47:15.955Z,14.50
2022-09-16T17:49:43.983Z,14.40
2022-09-16T17:52:12.085Z,14.40
2022-09-16T17:54:40.849Z,14.40
2022-09-16T17:57:09.009Z,14.40
2022-09-16T17:59:37.427Z,14.40
2022-09-16T18:02:09.242Z,14.30
2022-09-16T18:04:38.255Z,14.30
2022-09-16T18:07:06.407Z,14.20
2022-09-16T18:09:34.469Z,14.20
2022-09-16T18:12:03.755Z,14.10
2022-09-16T18:14:31.975Z,14.00
2022-09-16T18:17:00.946Z,13.90
2022-09-16T18:19:30.372Z,13.80
2022-09-16T18:21:59.096Z,13.80
2022-09-16T18:24:27.325Z,13.70
2022-09-16T18:26:55.417Z,13.70
2022-09-16T18:29:23.433Z,13.70
2022-09-16T18:31:54.664Z,13.70
2022-09-16T18:34:23.891Z,13.70
2022-09-16T18:36:53.726Z,13.70
2022-09-16T18:39:21.835Z,13.60
2022-09-16T18:41:50.546Z,13.50
2022-09-16T18:44:23.797Z,13.40
2022-09-16T18:46:53.565Z,13.30
2022-09-16T18:49:24.123Z,13.30
2022-09-16T18:51:55.085Z,13.30
2022-09-16T18:54:28.413Z,13.20
2022-09-16T18:56:57.606Z,13.20
2022-09-16T18:59:31.103Z,13.20
2022-09-16T19:02:02.609Z,13.20
2022-09-16T19:04:34.191Z,13.20
2022-09-16T19:07:08.620Z,13.20
2022-09-16T19:09:40.647Z,13.10
2022-09-16T19:12:12.367Z,13.10
2022-09-16T19:14:41.720Z,13.10
2022-09-16T19:17:10.814Z,13.10
2022-09-16T19:19:38.913Z,13.10
2022-09-16T19:22:08.945Z,13.10
2022-09-16T19:24:37.396Z,13.10
2022-09-16T19:27:05.681Z,13.00
2022-09-16T19:29:34.322Z,13.00
2022-09-16T19:32:03.645Z,13.20
2022-09-16T19:34:31.916Z,13.00
2022-09-16T19:37:00.162Z,13.00
2022-09-16T19:39:29.574Z,13.10
2022-09-16T19:42:03.411Z,12.90
2022-09-16T19:44:32.286Z,13.00
2022-09-16T19:47:01.301Z,13.00
2022-09-16T19:49:29.487Z,13.30
2022-09-16T19:51:57.685Z,12.90
2022-09-16T19:54:25.664Z,12.90
2022-09-16T19:56:55.546Z,12.90
2022-09-16T19:59:24.504Z,12.90
2022-09-16T20:01:53.108Z,12.90
2022-09-16T20:04:21.383Z,12.80
2022-09-16T20:06:50.281Z,12.80
2022-09-16T20:09:19.791Z,13.10
2022-09-16T20:11:49.754Z,12.70
2022-09-16T20:14:22.051Z,12.70
2022-09-16T20:16:52.200Z,12.70
2022-09-16T20:19:21.739Z,12.60
2022-09-16T20:21:49.905Z,12.60
2022-09-16T20:24:21.007Z,12.60
2022-09-16T20:26:50.202Z,12.60
2022-09-16T20:29:21.899Z,12.60
2022-09-16T20:31:52.813Z,12.60
2022-09-16T20:34:23.761Z,12.60
2022-09-16T20:36:53.050Z,12.60
2022-09-16T20:39:22.073Z,12.50
2022-09-16T20:41:52.559Z,12.50
2022-09-16T20:44:22.259Z,12.50
2022-09-16T20:46:50.423Z,12.50
2022-09-16T20:49:23.184Z,12.50
2022-09-16T20:51:51.760Z,12.50
2022-09-16T20:54:20.256Z,12.40
2022-09-16T20:56:49.995Z,12.40
2022-09-16T20:59:21.941Z,12.40
2022-09-16T21:01:50.521Z,12.40
2022-09-16T21:04:21.591Z,12.30
2022-09-16T21:06:49.719Z,12.30
2022-09-16T21:09:19.228Z,12.30
2022-09-16T21:11:50.089Z,12.30
2022-09-16T21:14:21.589Z,12.40
2022-09-16T21:16:51.622Z,12.40
2022-09-16T21:19:20.230Z,12.40
2022-09-16T21:21:48.727Z,12.40
2022-09-16T21:24:17.865Z,12.30
2022-09-16T21:26:46.960Z,12.40
2022-09-16T21:29:20.942Z,12.30
2022-09-16T21:31:50.570Z,12.30
2022-09-16T21:34:21.883Z,12.30
2022-09-16T21:36:50.991Z,12.20
2022-09-16T21:39:22.034Z,12.20
2022-09-16T21:41:50.182Z,12.10
2022-09-16T21:44:20.193Z,12.10
2022-09-16T21:46:50.921Z,12.10
2022-09-16T21:49:22.316Z,12.10
2022-09-16T21:51:52.038Z,12.20
2022-09-16T21:54:20.861Z,12.20
2022-09-16T21:56:51.329Z,12.10
2022-09-16T21:59:20.825Z,12.10
2022-09-16T22:01:51.714Z,12.10
2022-09-16T22:04:21.873Z,12.10
2022-09-16T22:06:53.016Z,12.10
2022-09-16T22:09:21.633Z,12.00
2022-09-16T22:11:50.378Z,12.00
2022-09-16T22:14:18.965Z,12.00
2022-09-16T22:16:47.362Z,12.00
2022-09-16T22:19:19.713Z,12.00
2022-09-16T22:21:51.415Z,11.90
2022-09-16T22:24:21.349Z,11.90
2022-09-16T22:26:52.120Z,11.90
2022-09-16T22:29:20.864Z,11.90
2022-09-16T22:31:49.650Z,11.80
2022-09-16T22:34:19.358Z,11.90
2022-09-16T22:36:47.580Z,11.90
2022-09-16T22:39:18.261Z,11.90
2022-09-16T22:41:46.736Z,11.80
2022-09-16T22:44:15.594Z,11.80
2022-09-16T22:46:46.865Z,11.80
2022-09-16T22:49:16.672Z,11.80
2022-09-16T22:51:46.800Z,11.70
2022-09-16T22:54:16.029Z,11.70
2022-09-16T22:56:45.704Z,11.70
2022-09-16T22:59:19.325Z,11.70
2022-09-16T23:01:49.447Z,11.60
2022-09-16T23:04:18.011Z,11.60
2022-09-16T23:06:48.041Z,11.60
2022-09-16T23:09:16.179Z,11.50
2022-09-16T23:11:44.926Z,11.50
2022-09-16T23:14:15.691Z,11.40
2022-09-16T23:16:44.346Z,11.40
2022-09-16T23:19:13.283Z,11.40
2022-09-16T23:21:42.769Z,11.30
2022-09-16T23:24:17.655Z,11.30
2022-09-16T23:26:46.950Z,11.30
2022-09-16T23:29:18.552Z,11.30
2022-09-16T23:31:47.575Z,11.30
2022-09-16T23:34:19.534Z,11.30
2022-09-16T23:36:48.174Z,11.20
2022-09-16T23:39:19.087Z,11.20
2022-09-16T23:41:51.975Z,11.10
2022-09-16T23:44:20.581Z,11.10
2022-09-16T23:46:48.729Z,11.20
2022-09-16T23:49:20.413Z,11.10
2022-09-16T23:51:49.265Z,11.20
2022-09-16T23:54:18.717Z,11.20
2022-09-16T23:56:47.598Z,11.20
2022-09-16T23:59:15.874Z,11.20
